sensor_id;sensor_type;location;lat;lon;timestamp;pressure;altitude;pressure_sealevel;temperature;humidity
77090;BME280;66028;53.558;9.950;2023-12-20T00:02:20;100741.50;;;4.83;95.82
77090;BME280;66028;53.558;9.950;2023-12-20T00:04:46;100749.31;;;4.84;95.37
77090;BME280;66028;53.558;9.950;2023-12-20T00:07:11;100740.03;;;4.80;95.56
77090;BME280;66028;53.558;9.950;2023-12-20T00:09:36;100742.94;;;4.79;95.28
77090;BME280;66028;53.558;9.950;2023-12-20T00:12:02;100736.50;;;4.73;95.58
77090;BME280;66028;53.558;9.950;2023-12-20T00:14:27;100734.03;;;4.71;95.24
77090;BME280;66028;53.558;9.950;2023-12-20T00:16:52;100736.09;;;4.69;95.12
77090;BME280;66028;53.558;9.950;2023-12-20T00:19:18;100726.59;;;4.67;95.03
77090;BME280;66028;53.558;9.950;2023-12-20T00:21:43;100730.50;;;4.64;95.39
77090;BME280;66028;53.558;9.950;2023-12-20T00:24:08;100733.38;;;4.63;95.14
77090;BME280;66028;53.558;9.950;2023-12-20T00:26:34;100732.59;;;4.69;95.23
77090;BME280;66028;53.558;9.950;2023-12-20T00:28:59;100735.88;;;4.71;95.62
77090;BME280;66028;53.558;9.950;2023-12-20T00:31:24;100733.44;;;4.76;95.08
77090;BME280;66028;53.558;9.950;2023-12-20T00:33:49;100730.31;;;4.72;95.19
77090;BME280;66028;53.558;9.950;2023-12-20T00:36:15;100720.00;;;4.76;95.16
77090;BME280;66028;53.558;9.950;2023-12-20T00:38:40;100718.56;;;4.74;94.95
77090;BME280;66028;53.558;9.950;2023-12-20T00:41:05;100718.75;;;4.72;94.74
77090;BME280;66028;53.558;9.950;2023-12-20T00:43:31;100718.16;;;4.77;95.00
77090;BME280;66028;53.558;9.950;2023-12-20T00:45:57;100707.66;;;4.82;94.68
77090;BME280;66028;53.558;9.950;2023-12-20T00:48:22;100700.22;;;4.77;94.50
77090;BME280;66028;53.558;9.950;2023-12-20T00:50:47;100695.69;;;4.78;94.43
77090;BME280;66028;53.558;9.950;2023-12-20T00:53:12;100697.53;;;4.70;94.95
77090;BME280;66028;53.558;9.950;2023-12-20T00:55:39;100693.19;;;4.76;94.73
77090;BME280;66028;53.558;9.950;2023-12-20T00:58:04;100692.75;;;4.72;94.70
77090;BME280;66028;53.558;9.950;2023-12-20T01:00:29;100693.59;;;4.73;94.36
77090;BME280;66028;53.558;9.950;2023-12-20T01:02:54;100693.59;;;4.66;93.97
77090;BME280;66028;53.558;9.950;2023-12-20T01:05:20;100685.34;;;4.68;94.29
77090;BME280;66028;53.558;9.950;2023-12-20T01:07:48;100683.47;;;4.62;93.99
77090;BME280;66028;53.558;9.950;2023-12-20T01:10:13;100688.19;;;4.60;94.39
77090;BME280;66028;53.558;9.950;2023-12-20T01:12:38;100692.97;;;4.58;94.10
77090;BME280;66028;53.558;9.950;2023-12-20T01:15:04;100688.00;;;4.55;93.96
77090;BME280;66028;53.558;9.950;2023-12-20T01:17:30;100682.44;;;4.56;94.23
77090;BME280;66028;53.558;9.950;2023-12-20T01:19:55;100688.63;;;4.57;94.32
77090;BME280;66028;53.558;9.950;2023-12-20T01:22:20;100685.91;;;4.50;93.97
77090;BME280;66028;53.558;9.950;2023-12-20T01:24:45;100690.69;;;4.55;94.19
77090;BME280;66028;53.558;9.950;2023-12-20T01:27:11;100680.53;;;4.50;94.18
77090;BME280;66028;53.558;9.950;2023-12-20T01:29:36;100674.34;;;4.43;94.03
77090;BME280;66028;53.558;9.950;2023-12-20T01:32:01;100675.19;;;4.44;94.27
77090;BME280;66028;53.558;9.950;2023-12-20T01:34:26;100686.31;;;4.41;94.05
77090;BME280;66028;53.558;9.950;2023-12-20T01:36:52;100671.69;;;4.43;94.06
77090;BME280;66028;53.558;9.950;2023-12-20T01:39:17;100676.41;;;4.41;94.15
77090;BME280;66028;53.558;9.950;2023-12-20T01:41:43;100674.56;;;4.42;93.89
77090;BME280;66028;53.558;9.950;2023-12-20T01:44:08;100668.13;;;4.36;93.79
77090;BME280;66028;53.558;9.950;2023-12-20T01:46:33;100663.59;;;4.30;94.28
77090;BME280;66028;53.558;9.950;2023-12-20T01:48:59;100662.97;;;4.28;94.26
77090;BME280;66028;53.558;9.950;2023-12-20T01:51:25;100655.75;;;4.28;94.52
77090;BME280;66028;53.558;9.950;2023-12-20T01:53:52;100667.94;;;4.31;94.54
77090;BME280;66028;53.558;9.950;2023-12-20T01:56:19;100674.31;;;4.37;94.89
77090;BME280;66028;53.558;9.950;2023-12-20T01:58:46;100667.94;;;4.38;94.40
77090;BME280;66028;53.558;9.950;2023-12-20T02:01:12;100668.56;;;4.33;94.50
77090;BME280;66028;53.558;9.950;2023-12-20T02:03:40;100647.13;;;4.33;94.35
77090;BME280;66028;53.558;9.950;2023-12-20T02:06:06;100654.53;;;4.31;94.31
77090;BME280;66028;53.558;9.950;2023-12-20T02:08:32;100649.78;;;4.33;94.23
77090;BME280;66028;53.558;9.950;2023-12-20T02:10:57;100643.59;;;4.32;94.75
77090;BME280;66028;53.558;9.950;2023-12-20T02:13:23;100646.69;;;4.29;94.27
77090;BME280;66028;53.558;9.950;2023-12-20T02:15:48;100636.59;;;4.31;94.45
77090;BME280;66028;53.558;9.950;2023-12-20T02:18:13;100628.31;;;4.26;94.49
77090;BME280;66028;53.558;9.950;2023-12-20T02:20:41;100626.06;;;4.30;94.50
77090;BME280;66028;53.558;9.950;2023-12-20T02:23:07;100621.72;;;4.29;94.55
77090;BME280;66028;53.558;9.950;2023-12-20T02:25:32;100622.16;;;4.32;94.50
77090;BME280;66028;53.558;9.950;2023-12-20T02:27:57;100626.06;;;4.37;94.30
77090;BME280;66028;53.558;9.950;2023-12-20T02:30:23;100625.69;;;4.40;93.91
77090;BME280;66028;53.558;9.950;2023-12-20T02:32:49;100620.75;;;4.43;93.73
77090;BME280;66028;53.558;9.950;2023-12-20T02:35:15;100618.06;;;4.50;93.49
77090;BME280;66028;53.558;9.950;2023-12-20T02:37:40;100619.28;;;4.47;93.82
77090;BME280;66028;53.558;9.950;2023-12-20T02:40:06;100613.53;;;4.50;93.28
77090;BME280;66028;53.558;9.950;2023-12-20T02:42:31;100618.50;;;4.53;93.38
77090;BME280;66028;53.558;9.950;2023-12-20T02:44:57;100622.81;;;4.54;93.54
77090;BME280;66028;53.558;9.950;2023-12-20T02:47:22;100613.75;;;4.55;93.12
77090;BME280;66028;53.558;9.950;2023-12-20T02:49:47;100609.41;;;4.61;92.87
77090;BME280;66028;53.558;9.950;2023-12-20T02:52:12;100596.41;;;4.51;92.97
77090;BME280;66028;53.558;9.950;2023-12-20T02:54:38;100597.66;;;4.55;93.16
77090;BME280;66028;53.558;9.950;2023-12-20T02:57:03;100600.34;;;4.55;92.87
77090;BME280;66028;53.558;9.950;2023-12-20T02:59:28;100605.72;;;4.55;92.64
77090;BME280;66028;53.558;9.950;2023-12-20T03:01:54;100597.66;;;4.55;92.92
77090;BME280;66028;53.558;9.950;2023-12-20T03:04:19;100598.47;;;4.49;92.88
77090;BME280;66028;53.558;9.950;2023-12-20T03:06:44;100598.66;;;4.48;92.97
77090;BME280;66028;53.558;9.950;2023-12-20T03:09:09;100592.47;;;4.47;92.90
77090;BME280;66028;53.558;9.950;2023-12-20T03:11:35;100593.94;;;4.50;92.71
77090;BME280;66028;53.558;9.950;2023-12-20T03:14:00;100587.53;;;4.51;93.35
77090;BME280;66028;53.558;9.950;2023-12-20T03:16:25;100587.75;;;4.49;93.28
77090;BME280;66028;53.558;9.950;2023-12-20T03:18:50;100584.25;;;4.55;92.88
77090;BME280;66028;53.558;9.950;2023-12-20T03:21:16;100577.84;;;4.50;92.71
77090;BME280;66028;53.558;9.950;2023-12-20T03:23:41;100584.66;;;4.52;93.02
77090;BME280;66028;53.558;9.950;2023-12-20T03:26:07;100564.88;;;4.53;92.79
77090;BME280;66028;53.558;9.950;2023-12-20T03:28:33;100576.84;;;4.57;92.53
77090;BME280;66028;53.558;9.950;2023-12-20T03:30:58;100568.38;;;4.54;92.62
77090;BME280;66028;53.558;9.950;2023-12-20T03:33:23;100570.63;;;4.50;92.62
77090;BME280;66028;53.558;9.950;2023-12-20T03:35:48;100563.63;;;4.56;92.60
77090;BME280;66028;53.558;9.950;2023-12-20T03:38:14;100573.94;;;4.59;92.58
77090;BME280;66028;53.558;9.950;2023-12-20T03:40:39;100565.28;;;4.57;92.07
77090;BME280;66028;53.558;9.950;2023-12-20T03:43:04;100564.66;;;4.61;91.72
77090;BME280;66028;53.558;9.950;2023-12-20T03:45:29;100565.28;;;4.63;91.97
77090;BME280;66028;53.558;9.950;2023-12-20T03:47:55;100560.31;;;4.60;91.18
77090;BME280;66028;53.558;9.950;2023-12-20T03:50:25;100560.13;;;4.62;91.89
77090;BME280;66028;53.558;9.950;2023-12-20T03:52:50;100550.41;;;4.61;92.46
77090;BME280;66028;53.558;9.950;2023-12-20T03:55:16;100548.16;;;4.71;91.87
77090;BME280;66028;53.558;9.950;2023-12-20T03:57:41;100541.34;;;4.62;91.67
77090;BME280;66028;53.558;9.950;2023-12-20T04:00:10;100536.00;;;4.68;91.74
77090;BME280;66028;53.558;9.950;2023-12-20T04:02:39;100532.50;;;4.68;91.36
77090;BME280;66028;53.558;9.950;2023-12-20T04:05:05;100533.31;;;4.68;91.60
77090;BME280;66028;53.558;9.950;2023-12-20T04:07:31;100538.03;;;4.73;91.79
77090;BME280;66028;53.558;9.950;2023-12-20T04:09:56;100531.66;;;4.74;91.86
77090;BME280;66028;53.558;9.950;2023-12-20T04:12:22;100532.69;;;4.73;91.37
77090;BME280;66028;53.558;9.950;2023-12-20T04:14:47;100526.50;;;4.72;91.93
77090;BME280;66028;53.558;9.950;2023-12-20T04:17:12;100527.09;;;4.75;91.77
77090;BME280;66028;53.558;9.950;2023-12-20T04:19:37;100523.81;;;4.72;91.36
77090;BME280;66028;53.558;9.950;2023-12-20T04:22:03;100522.38;;;4.77;90.97
77090;BME280;66028;53.558;9.950;2023-12-20T04:24:28;100509.97;;;4.76;91.69
77090;BME280;66028;53.558;9.950;2023-12-20T04:26:53;100501.53;;;4.72;91.41
77090;BME280;66028;53.558;9.950;2023-12-20T04:29:19;100502.38;;;4.66;91.45
77090;BME280;66028;53.558;9.950;2023-12-20T04:31:44;100506.91;;;4.65;91.89
77090;BME280;66028;53.558;9.950;2023-12-20T04:34:09;100499.28;;;4.69;91.85
77090;BME280;66028;53.558;9.950;2023-12-20T04:36:35;100491.44;;;4.67;91.60
77090;BME280;66028;53.558;9.950;2023-12-20T04:39:00;100502.56;;;4.71;91.78
77090;BME280;66028;53.558;9.950;2023-12-20T04:41:25;100491.41;;;4.74;91.65
77090;BME280;66028;53.558;9.950;2023-12-20T04:43:52;100481.72;;;4.73;91.55
77090;BME280;66028;53.558;9.950;2023-12-20T04:46:17;100483.56;;;4.72;91.61
77090;BME280;66028;53.558;9.950;2023-12-20T04:48:43;100482.38;;;4.68;91.35
77090;BME280;66028;53.558;9.950;2023-12-20T04:51:08;100481.09;;;4.71;91.35
77090;BME280;66028;53.558;9.950;2023-12-20T04:53:33;100467.09;;;4.69;91.54
77090;BME280;66028;53.558;9.950;2023-12-20T04:55:58;100472.44;;;4.76;91.16
77090;BME280;66028;53.558;9.950;2023-12-20T04:58:24;100471.81;;;4.74;91.11
77090;BME280;66028;53.558;9.950;2023-12-20T05:00:49;100472.84;;;4.79;91.36
77090;BME280;66028;53.558;9.950;2023-12-20T05:03:14;100469.13;;;4.80;91.10
77090;BME280;66028;53.558;9.950;2023-12-20T05:05:39;100473.47;;;4.81;91.58
77090;BME280;66028;53.558;9.950;2023-12-20T05:08:05;100462.53;;;4.83;91.61
77090;BME280;66028;53.558;9.950;2023-12-20T05:10:30;100462.72;;;4.88;91.25
77090;BME280;66028;53.558;9.950;2023-12-20T05:12:55;100466.22;;;4.88;91.05
77090;BME280;66028;53.558;9.950;2023-12-20T05:15:21;100470.16;;;4.92;90.87
77090;BME280;66028;53.558;9.950;2023-12-20T05:17:46;100467.25;;;4.94;90.76
77090;BME280;66028;53.558;9.950;2023-12-20T05:20:11;100459.78;;;4.96;90.61
77090;BME280;66028;53.558;9.950;2023-12-20T05:22:36;100461.66;;;4.95;90.33
77090;BME280;66028;53.558;9.950;2023-12-20T05:25:02;100461.06;;;4.93;90.90
77090;BME280;66028;53.558;9.950;2023-12-20T05:27:27;100456.28;;;4.95;91.05
77090;BME280;66028;53.558;9.950;2023-12-20T05:29:53;100455.50;;;4.95;91.07
77090;BME280;66028;53.558;9.950;2023-12-20T05:32:18;100437.31;;;4.97;90.60
77090;BME280;66028;53.558;9.950;2023-12-20T05:34:43;100446.59;;;5.01;89.54
77090;BME280;66028;53.558;9.950;2023-12-20T05:37:08;100450.09;;;5.01;89.93
77090;BME280;66028;53.558;9.950;2023-12-20T05:39:34;100441.25;;;4.94;90.96
77090;BME280;66028;53.558;9.950;2023-12-20T05:41:59;100461.66;;;4.95;91.20
77090;BME280;66028;53.558;9.950;2023-12-20T05:44:25;100451.16;;;4.94;91.01
77090;BME280;66028;53.558;9.950;2023-12-20T05:46:50;100462.47;;;4.96;91.39
77090;BME280;66028;53.558;9.950;2023-12-20T05:49:15;100451.75;;;4.96;91.51
77090;BME280;66028;53.558;9.950;2023-12-20T05:51:40;100450.34;;;4.93;91.76
77090;BME280;66028;53.558;9.950;2023-12-20T05:54:05;100455.69;;;4.93;91.90
77090;BME280;66028;53.558;9.950;2023-12-20T05:56:31;100444.16;;;4.93;91.62
77090;BME280;66028;53.558;9.950;2023-12-20T05:58:56;100441.03;;;4.96;91.63
77090;BME280;66028;53.558;9.950;2023-12-20T06:01:23;100434.00;;;5.01;91.63
77090;BME280;66028;53.558;9.950;2023-12-20T06:03:49;100439.38;;;5.01;92.23
77090;BME280;66028;53.558;9.950;2023-12-20T06:06:14;100438.94;;;4.98;92.41
77090;BME280;66028;53.558;9.950;2023-12-20T06:08:40;100433.59;;;4.98;91.86
77090;BME280;66028;53.558;9.950;2023-12-20T06:11:06;100432.34;;;5.00;91.11
77090;BME280;66028;53.558;9.950;2023-12-20T06:13:31;100441.84;;;5.03;91.31
77090;BME280;66028;53.558;9.950;2023-12-20T06:15:57;100424.09;;;5.02;90.94
77090;BME280;66028;53.558;9.950;2023-12-20T06:18:22;100420.59;;;5.01;90.99
77090;BME280;66028;53.558;9.950;2023-12-20T06:20:48;100414.81;;;4.98;91.26
77090;BME280;66028;53.558;9.950;2023-12-20T06:23:13;100427.41;;;4.97;91.34
77090;BME280;66028;53.558;9.950;2023-12-20T06:25:38;100417.69;;;4.96;90.57
77090;BME280;66028;53.558;9.950;2023-12-20T06:28:04;100425.75;;;5.03;90.74
77090;BME280;66028;53.558;9.950;2023-12-20T06:30:29;100413.16;;;5.03;89.74
77090;BME280;66028;53.558;9.950;2023-12-20T06:32:55;100430.69;;;5.06;89.97
77090;BME280;66028;53.558;9.950;2023-12-20T06:35:22;100418.31;;;5.05;90.10
77090;BME280;66028;53.558;9.950;2023-12-20T06:37:48;100414.97;;;5.10;90.38
77090;BME280;66028;53.558;9.950;2023-12-20T06:40:13;100407.94;;;5.08;90.55
77090;BME280;66028;53.558;9.950;2023-12-20T06:42:38;100404.44;;;5.08;90.23
77090;BME280;66028;53.558;9.950;2023-12-20T06:45:04;100406.91;;;5.10;90.04
77090;BME280;66028;53.558;9.950;2023-12-20T06:47:29;100397.63;;;5.12;89.96
77090;BME280;66028;53.558;9.950;2023-12-20T06:49:54;100404.84;;;5.12;89.85
77090;BME280;66028;53.558;9.950;2023-12-20T06:52:20;100392.47;;;5.11;90.09
77090;BME280;66028;53.558;9.950;2023-12-20T06:54:45;100391.66;;;5.10;90.37
77090;BME280;66028;53.558;9.950;2023-12-20T06:57:10;100396.84;;;5.05;90.68
77090;BME280;66028;53.558;9.950;2023-12-20T06:59:40;100382.97;;;5.08;90.37
77090;BME280;66028;53.558;9.950;2023-12-20T07:02:06;100378.63;;;5.14;90.74
77090;BME280;66028;53.558;9.950;2023-12-20T07:04:31;100377.41;;;5.10;90.29
77090;BME280;66028;53.558;9.950;2023-12-20T07:06:56;100367.53;;;5.03;90.54
77090;BME280;66028;53.558;9.950;2023-12-20T07:09:25;100366.50;;;5.04;90.79
77090;BME280;66028;53.558;9.950;2023-12-20T07:11:50;100373.13;;;5.02;90.81
77090;BME280;66028;53.558;9.950;2023-12-20T07:14:15;100373.72;;;5.04;90.34
77090;BME280;66028;53.558;9.950;2023-12-20T07:16:41;100368.75;;;5.07;90.19
77090;BME280;66028;53.558;9.950;2023-12-20T07:19:06;100368.16;;;5.05;90.78
77090;BME280;66028;53.558;9.950;2023-12-20T07:21:31;100365.84;;;5.09;90.53
77090;BME280;66028;53.558;9.950;2023-12-20T07:23:57;100366.25;;;5.13;90.73
77090;BME280;66028;53.558;9.950;2023-12-20T07:26:22;100372.03;;;5.10;90.89
77090;BME280;66028;53.558;9.950;2023-12-20T07:28:48;100376.16;;;5.12;90.14
77090;BME280;66028;53.558;9.950;2023-12-20T07:31:15;100377.59;;;5.15;90.48
77090;BME280;66028;53.558;9.950;2023-12-20T07:33:40;100375.31;;;5.18;90.58
77090;BME280;66028;53.558;9.950;2023-12-20T07:36:06;100365.56;;;5.24;89.64
77090;BME280;66028;53.558;9.950;2023-12-20T07:38:31;100360.03;;;5.19;90.32
77090;BME280;66028;53.558;9.950;2023-12-20T07:40:56;100365.63;;;5.17;90.05
77090;BME280;66028;53.558;9.950;2023-12-20T07:43:22;100366.59;;;5.23;90.18
77090;BME280;66028;53.558;9.950;2023-12-20T07:45:47;100352.41;;;5.16;90.09
77090;BME280;66028;53.558;9.950;2023-12-20T07:48:12;100357.09;;;5.27;90.22
77090;BME280;66028;53.558;9.950;2023-12-20T07:50:37;100357.72;;;5.29;89.66
77090;BME280;66028;53.558;9.950;2023-12-20T07:53:03;100358.53;;;5.29;89.68
77090;BME280;66028;53.558;9.950;2023-12-20T07:55:28;100353.53;;;5.33;89.81
77090;BME280;66028;53.558;9.950;2023-12-20T07:57:55;100354.34;;;5.33;89.63
77090;BME280;66028;53.558;9.950;2023-12-20T08:00:20;100336.72;;;5.44;88.89
77090;BME280;66028;53.558;9.950;2023-12-20T08:02:46;100336.16;;;5.42;88.99
77090;BME280;66028;53.558;9.950;2023-12-20T08:05:11;100339.88;;;5.41;89.29
77090;BME280;66028;53.558;9.950;2023-12-20T08:07:36;100347.25;;;5.46;88.94
77090;BME280;66028;53.558;9.950;2023-12-20T08:10:02;100340.63;;;5.48;87.96
77090;BME280;66028;53.558;9.950;2023-12-20T08:12:27;100336.50;;;5.52;88.23
77090;BME280;66028;53.558;9.950;2023-12-20T08:14:53;100318.31;;;5.54;88.88
77090;BME280;66028;53.558;9.950;2023-12-20T08:17:19;100327.56;;;5.58;88.51
77090;BME280;66028;53.558;9.950;2023-12-20T08:19:44;100320.75;;;5.56;88.07
77090;BME280;66028;53.558;9.950;2023-12-20T08:22:09;100313.91;;;5.60;88.32
77090;BME280;66028;53.558;9.950;2023-12-20T08:24:35;100296.13;;;5.65;87.18
77090;BME280;66028;53.558;9.950;2023-12-20T08:27:00;100290.75;;;5.65;87.51
77090;BME280;66028;53.558;9.950;2023-12-20T08:29:25;100304.16;;;5.65;87.95
77090;BME280;66028;53.558;9.950;2023-12-20T08:31:55;100298.72;;;5.72;87.27
77090;BME280;66028;53.558;9.950;2023-12-20T08:34:20;100293.44;;;5.65;88.00
77090;BME280;66028;53.558;9.950;2023-12-20T08:36:45;100301.00;;;5.75;87.82
77090;BME280;66028;53.558;9.950;2023-12-20T08:39:11;100298.44;;;5.80;87.15
77090;BME280;66028;53.558;9.950;2023-12-20T08:41:36;100296.16;;;5.84;87.37
77090;BME280;66028;53.558;9.950;2023-12-20T08:44:02;100282.56;;;5.78;87.41
77090;BME280;66028;53.558;9.950;2023-12-20T08:46:27;100285.78;;;5.87;87.42
77090;BME280;66028;53.558;9.950;2023-12-20T08:48:52;100279.41;;;5.88;87.88
77090;BME280;66028;53.558;9.950;2023-12-20T08:51:18;100272.78;;;5.84;87.02
77090;BME280;66028;53.558;9.950;2023-12-20T08:53:44;100282.41;;;5.73;87.79
77090;BME280;66028;53.558;9.950;2023-12-20T08:56:10;100288.81;;;5.72;88.05
77090;BME280;66028;53.558;9.950;2023-12-20T08:58:35;100276.19;;;5.73;88.42
77090;BME280;66028;53.558;9.950;2023-12-20T09:01:01;100282.22;;;5.68;89.18
77090;BME280;66028;53.558;9.950;2023-12-20T09:03:26;100278.13;;;5.66;88.35
77090;BME280;66028;53.558;9.950;2023-12-20T09:05:52;100265.25;;;5.50;90.20
77090;BME280;66028;53.558;9.950;2023-12-20T09:08:17;100260.09;;;5.48;90.23
77090;BME280;66028;53.558;9.950;2023-12-20T09:10:42;100264.09;;;5.39;91.52
77090;BME280;66028;53.558;9.950;2023-12-20T09:13:08;100263.66;;;5.42;91.68
77090;BME280;66028;53.558;9.950;2023-12-20T09:15:33;100270.72;;;5.36;92.02
77090;BME280;66028;53.558;9.950;2023-12-20T09:17:59;100286.22;;;5.34;92.23
77090;BME280;66028;53.558;9.950;2023-12-20T09:20:24;100296.78;;;5.29;92.80
77090;BME280;66028;53.558;9.950;2023-12-20T09:22:49;100301.56;;;5.27;92.87
77090;BME280;66028;53.558;9.950;2023-12-20T09:25:15;100307.78;;;5.21;92.97
77090;BME280;66028;53.558;9.950;2023-12-20T09:27:42;100305.53;;;5.18;92.82
77090;BME280;66028;53.558;9.950;2023-12-20T09:30:07;100302.66;;;5.13;92.61
77090;BME280;66028;53.558;9.950;2023-12-20T09:32:33;100290.28;;;5.12;92.62
77090;BME280;66028;53.558;9.950;2023-12-20T09:34:58;100294.41;;;5.15;92.19
77090;BME280;66028;53.558;9.950;2023-12-20T09:37:27;100292.75;;;5.14;91.66
77090;BME280;66028;53.558;9.950;2023-12-20T09:39:53;100305.16;;;5.08;91.54
77090;BME280;66028;53.558;9.950;2023-12-20T09:42:24;100320.69;;;5.06;90.72
77090;BME280;66028;53.558;9.950;2023-12-20T09:44:53;100321.50;;;5.06;89.78
77090;BME280;66028;53.558;9.950;2023-12-20T09:47:19;100319.59;;;5.14;88.65
77090;BME280;66028;53.558;9.950;2023-12-20T09:49:48;100314.44;;;5.12;88.53
77090;BME280;66028;53.558;9.950;2023-12-20T09:52:14;100320.28;;;5.02;87.93
77090;BME280;66028;53.558;9.950;2023-12-20T09:54:39;100317.84;;;4.94;87.23
77090;BME280;66028;53.558;9.950;2023-12-20T09:57:06;100319.31;;;4.90;87.74
77090;BME280;66028;53.558;9.950;2023-12-20T09:59:31;100317.69;;;4.83;88.70
77090;BME280;66028;53.558;9.950;2023-12-20T10:01:57;100316.47;;;4.79;88.01
77090;BME280;66028;53.558;9.950;2023-12-20T10:04:22;100311.13;;;5.17;89.32
77090;BME280;66028;53.558;9.950;2023-12-20T10:06:48;100298.81;;;5.34;87.43
77090;BME280;66028;53.558;9.950;2023-12-20T10:09:13;100309.22;;;4.86;86.83
77090;BME280;66028;53.558;9.950;2023-12-20T10:11:39;100301.63;;;4.76;88.27
77090;BME280;66028;53.558;9.950;2023-12-20T10:14:05;100323.13;;;4.69;87.42
77090;BME280;66028;53.558;9.950;2023-12-20T10:16:32;100317.16;;;4.61;87.59
77090;BME280;66028;53.558;9.950;2023-12-20T10:18:58;100337.59;;;4.55;87.64
77090;BME280;66028;53.558;9.950;2023-12-20T10:21:23;100331.81;;;4.52;88.26
77090;BME280;66028;53.558;9.950;2023-12-20T10:23:54;100328.53;;;4.50;88.70
77090;BME280;66028;53.558;9.950;2023-12-20T10:26:25;100314.31;;;4.49;88.77
77090;BME280;66028;53.558;9.950;2023-12-20T10:28:53;100311.63;;;4.49;89.14
77090;BME280;66028;53.558;9.950;2023-12-20T10:31:34;100315.75;;;4.52;88.22
77090;BME280;66028;53.558;9.950;2023-12-20T10:34:01;100310.38;;;4.58;88.50
77090;BME280;66028;53.558;9.950;2023-12-20T10:36:31;100297.38;;;4.55;88.19
77090;BME280;66028;53.558;9.950;2023-12-20T10:38:58;100300.84;;;4.62;88.00
77090;BME280;66028;53.558;9.950;2023-12-20T10:41:27;100296.31;;;4.69;88.16
77090;BME280;66028;53.558;9.950;2023-12-20T10:43:56;100307.44;;;4.66;88.26
77090;BME280;66028;53.558;9.950;2023-12-20T10:46:22;100297.53;;;4.67;88.53
77090;BME280;66028;53.558;9.950;2023-12-20T10:48:48;100293.84;;;4.68;88.25
77090;BME280;66028;53.558;9.950;2023-12-20T10:51:14;100289.25;;;4.75;88.25
77090;BME280;66028;53.558;9.950;2023-12-20T10:53:42;100277.06;;;4.72;88.34
77090;BME280;66028;53.558;9.950;2023-12-20T10:56:09;100292.97;;;4.74;87.98
77090;BME280;66028;53.558;9.950;2023-12-20T10:58:41;100287.22;;;4.70;88.63
77090;BME280;66028;53.558;9.950;2023-12-20T11:01:08;100286.59;;;4.68;88.88
77090;BME280;66028;53.558;9.950;2023-12-20T11:03:35;100295.06;;;4.65;89.18
77090;BME280;66028;53.558;9.950;2023-12-20T11:06:13;100277.13;;;4.66;89.15
77090;BME280;66028;53.558;9.950;2023-12-20T11:14:34;100271.28;;;4.76;88.91
77090;BME280;66028;53.558;9.950;2023-12-20T11:17:10;100270.47;;;4.75;87.97
77090;BME280;66028;53.558;9.950;2023-12-20T11:20:06;100271.13;;;4.70;88.58
77090;BME280;66028;53.558;9.950;2023-12-20T11:22:33;100276.41;;;4.84;87.89
77090;BME280;66028;53.558;9.950;2023-12-20T11:25:07;100257.34;;;4.98;87.05
77090;BME280;66028;53.558;9.950;2023-12-20T11:27:34;100273.63;;;5.03;86.72
77090;BME280;66028;53.558;9.950;2023-12-20T11:30:02;100269.25;;;5.09;86.71
77090;BME280;66028;53.558;9.950;2023-12-20T11:32:28;100268.41;;;5.15;87.05
77090;BME280;66028;53.558;9.950;2023-12-20T11:34:55;100294.44;;;5.08;87.85
77090;BME280;66028;53.558;9.950;2023-12-20T11:37:21;100314.19;;;5.20;88.21
77090;BME280;66028;53.558;9.950;2023-12-20T11:40:14;100321.16;;;5.28;88.07
77090;BME280;66028;53.558;9.950;2023-12-20T11:42:50;100315.00;;;5.21;88.53
77090;BME280;66028;53.558;9.950;2023-12-20T11:45:20;100297.50;;;5.12;87.77
77090;BME280;66028;53.558;9.950;2023-12-20T11:47:47;100306.88;;;4.96;88.78
77090;BME280;66028;53.558;9.950;2023-12-20T11:50:15;100300.31;;;4.92;89.25
77090;BME280;66028;53.558;9.950;2023-12-20T11:52:40;100296.75;;;4.98;88.12
77090;BME280;66028;53.558;9.950;2023-12-20T11:55:06;100298.19;;;5.00;89.07
77090;BME280;66028;53.558;9.950;2023-12-20T11:57:32;100295.31;;;5.02;88.34
77090;BME280;66028;53.558;9.950;2023-12-20T11:59:57;100301.72;;;5.01;87.97
77090;BME280;66028;53.558;9.950;2023-12-20T12:02:22;100291.19;;;4.99;88.70
77090;BME280;66028;53.558;9.950;2023-12-20T12:04:49;100298.66;;;4.91;89.09
77090;BME280;66028;53.558;9.950;2023-12-20T12:07:15;100294.13;;;4.91;89.19
77090;BME280;66028;53.558;9.950;2023-12-20T12:09:41;100299.50;;;4.91;89.10
77090;BME280;66028;53.558;9.950;2023-12-20T12:12:06;100301.16;;;4.92;89.58
77090;BME280;66028;53.558;9.950;2023-12-20T12:14:32;100287.03;;;5.03;89.17
77090;BME280;66028;53.558;9.950;2023-12-20T12:16:58;100282.09;;;5.07;89.54
77090;BME280;66028;53.558;9.950;2023-12-20T12:19:24;100281.69;;;5.03;89.55
77090;BME280;66028;53.558;9.950;2023-12-20T12:21:50;100279.59;;;5.05;89.74
77090;BME280;66028;53.558;9.950;2023-12-20T12:24:20;100284.50;;;5.15;88.79
77090;BME280;66028;53.558;9.950;2023-12-20T12:26:52;100272.31;;;5.19;87.97
77090;BME280;66028;53.558;9.950;2023-12-20T12:29:18;100279.91;;;5.22;88.32
77090;BME280;66028;53.558;9.950;2023-12-20T12:31:43;100282.97;;;5.26;86.72
77090;BME280;66028;53.558;9.950;2023-12-20T12:34:08;100274.28;;;5.30;86.14
77090;BME280;66028;53.558;9.950;2023-12-20T12:36:34;100275.47;;;5.34;84.62
77090;BME280;66028;53.558;9.950;2023-12-20T12:39:02;100274.44;;;5.35;84.96
77090;BME280;66028;53.558;9.950;2023-12-20T12:41:30;100281.88;;;5.33;84.71
77090;BME280;66028;53.558;9.950;2023-12-20T12:43:55;100277.13;;;5.35;84.36
77090;BME280;66028;53.558;9.950;2023-12-20T12:46:20;100291.09;;;5.44;84.42
77090;BME280;66028;53.558;9.950;2023-12-20T12:48:46;100285.19;;;5.60;83.88
77090;BME280;66028;53.558;9.950;2023-12-20T12:51:12;100291.34;;;5.67;83.49
77090;BME280;66028;53.558;9.950;2023-12-20T12:53:38;100274.84;;;5.64;83.18
77090;BME280;66028;53.558;9.950;2023-12-20T12:56:04;100281.69;;;5.60;82.84
77090;BME280;66028;53.558;9.950;2023-12-20T12:58:29;100283.34;;;5.61;83.04
77090;BME280;66028;53.558;9.950;2023-12-20T13:00:55;100285.41;;;5.59;83.41